sensor_id;sensor_type;location;lat;lon;timestamp;temperature;humidity
8593;DHT22;4334;49.982;8.398;2024-03-25T00:01:22;7.30;99.90
8593;DHT22;4334;49.982;8.398;2024-03-25T00:03:48;7.30;99.90
8593;DHT22;4334;49.982;8.398;2024-03-25T00:06:14;7.40;99.90
8593;DHT22;4334;49.982;8.398;2024-03-25T00:08:40;7.40;99.90
8593;DHT22;4334;49.982;8.398;2024-03-25T00:11:07;7.50;99.90
8593;DHT22;4334;49.982;8.398;2024-03-25T00:13:33;7.30;99.90
8593;DHT22;4334;49.982;8.398;2024-03-25T00:15:59;7.30;99.90
8593;DHT22;4334;49.982;8.398;2024-03-25T00:18:25;7.30;99.90
8593;DHT22;4334;49.982;8.398;2024-03-25T00:20:52;7.30;99.90
8593;DHT22;4334;49.982;8.398;2024-03-25T00:23:17;7.30;99.90
8593;DHT22;4334;49.982;8.398;2024-03-25T00:25:44;7.30;99.90
8593;DHT22;4334;49.982;8.398;2024-03-25T00:28:10;7.30;99.90
8593;DHT22;4334;49.982;8.398;2024-03-25T00:30:36;7.30;99.90
8593;DHT22;4334;49.982;8.398;2024-03-25T00:33:02;7.30;99.90
8593;DHT22;4334;49.982;8.398;2024-03-25T00:35:28;7.30;99.90
8593;DHT22;4334;49.982;8.398;2024-03-25T00:37:54;7.30;99.90
8593;DHT22;4334;49.982;8.398;2024-03-25T00:40:20;7.30;99.90
8593;DHT22;4334;49.982;8.398;2024-03-25T00:42:46;7.30;99.90
8593;DHT22;4334;49.982;8.398;2024-03-25T00:45:13;7.20;99.90
8593;DHT22;4334;49.982;8.398;2024-03-25T00:47:38;7.20;99.90
8593;DHT22;4334;49.982;8.398;2024-03-25T00:50:05;7.10;99.90
8593;DHT22;4334;49.982;8.398;2024-03-25T00:52:31;7.10;99.90
8593;DHT22;4334;49.982;8.398;2024-03-25T00:54:58;7.00;99.90
8593;DHT22;4334;49.982;8.398;2024-03-25T00:57:23;7.00;99.90
8593;DHT22;4334;49.982;8.398;2024-03-25T00:59:50;7.00;99.90
8593;DHT22;4334;49.982;8.398;2024-03-25T01:02:15;7.00;99.90
8593;DHT22;4334;49.982;8.398;2024-03-25T01:04:42;7.00;99.90
8593;DHT22;4334;49.982;8.398;2024-03-25T01:07:08;7.00;99.90
8593;DHT22;4334;49.982;8.398;2024-03-25T01:09:35;7.00;99.90
8593;DHT22;4334;49.982;8.398;2024-03-25T01:12:00;7.00;99.90
8593;DHT22;4334;49.982;8.398;2024-03-25T01:14:27;7.10;99.90
8593;DHT22;4334;49.982;8.398;2024-03-25T01:16:53;7.00;99.90
8593;DHT22;4334;49.982;8.398;2024-03-25T01:19:19;10.60;99.90
8593;DHT22;4334;49.982;8.398;2024-03-25T01:21:46;6.90;99.90
8593;DHT22;4334;49.982;8.398;2024-03-25T01:24:13;7.00;99.90
8593;DHT22;4334;49.982;8.398;2024-03-25T01:26:40;6.90;99.90
8593;DHT22;4334;49.982;8.398;2024-03-25T01:29:06;6.90;99.90
8593;DHT22;4334;49.982;8.398;2024-03-25T01:31:33;6.90;99.90
8593;DHT22;4334;49.982;8.398;2024-03-25T01:33:59;6.90;99.90
8593;DHT22;4334;49.982;8.398;2024-03-25T01:36:25;6.90;99.90
8593;DHT22;4334;49.982;8.398;2024-03-25T01:38:52;6.90;99.90
8593;DHT22;4334;49.982;8.398;2024-03-25T01:41:21;6.90;99.90
8593;DHT22;4334;49.982;8.398;2024-03-25T01:43:49;6.90;99.90
8593;DHT22;4334;49.982;8.398;2024-03-25T01:46:17;6.80;99.90
8593;DHT22;4334;49.982;8.398;2024-03-25T01:48:45;6.90;99.90
8593;DHT22;4334;49.982;8.398;2024-03-25T01:51:13;6.80;99.90
8593;DHT22;4334;49.982;8.398;2024-03-25T01:53:41;6.80;99.90
8593;DHT22;4334;49.982;8.398;2024-03-25T01:56:07;6.70;99.90
8593;DHT22;4334;49.982;8.398;2024-03-25T01:58:35;6.70;99.90
8593;DHT22;4334;49.982;8.398;2024-03-25T02:01:01;6.70;99.90
8593;DHT22;4334;49.982;8.398;2024-03-25T02:03:29;6.60;99.90
8593;DHT22;4334;49.982;8.398;2024-03-25T02:06:06;6.60;99.90
8593;DHT22;4334;49.982;8.398;2024-03-25T02:08:34;6.60;99.90
8593;DHT22;4334;49.982;8.398;2024-03-25T02:11:00;6.70;99.90
8593;DHT22;4334;49.982;8.398;2024-03-25T02:13:28;6.60;99.90
8593;DHT22;4334;49.982;8.398;2024-03-25T02:15:53;6.60;99.90
8593;DHT22;4334;49.982;8.398;2024-03-25T02:18:20;6.60;99.90
8593;DHT22;4334;49.982;8.398;2024-03-25T02:20:46;6.60;99.90
8593;DHT22;4334;49.982;8.398;2024-03-25T02:23:13;6.60;99.90
8593;DHT22;4334;49.982;8.398;2024-03-25T02:25:42;6.50;99.90
8593;DHT22;4334;49.982;8.398;2024-03-25T02:28:09;6.50;99.90
8593;DHT22;4334;49.982;8.398;2024-03-25T02:30:35;6.50;99.90
8593;DHT22;4334;49.982;8.398;2024-03-25T02:33:02;6.50;99.90
8593;DHT22;4334;49.982;8.398;2024-03-25T02:35:28;6.20;99.90
8593;DHT22;4334;49.982;8.398;2024-03-25T02:37:54;6.20;99.90
8593;DHT22;4334;49.982;8.398;2024-03-25T02:40:21;6.20;99.90
8593;DHT22;4334;49.982;8.398;2024-03-25T02:42:48;6.20;99.90
8593;DHT22;4334;49.982;8.398;2024-03-25T02:45:14;6.20;99.90
8593;DHT22;4334;49.982;8.398;2024-03-25T02:47:40;6.30;99.90
8593;DHT22;4334;49.982;8.398;2024-03-25T02:50:06;6.30;99.90
8593;DHT22;4334;49.982;8.398;2024-03-25T02:52:33;6.30;99.90
8593;DHT22;4334;49.982;8.398;2024-03-25T02:54:58;6.20;99.90
8593;DHT22;4334;49.982;8.398;2024-03-25T02:57:25;6.20;99.90
8593;DHT22;4334;49.982;8.398;2024-03-25T02:59:50;6.20;99.90
8593;DHT22;4334;49.982;8.398;2024-03-25T03:02:17;6.20;99.90
8593;DHT22;4334;49.982;8.398;2024-03-25T03:04:42;6.20;99.90
8593;DHT22;4334;49.982;8.398;2024-03-25T03:07:09;6.10;99.90
8593;DHT22;4334;49.982;8.398;2024-03-25T03:09:35;6.00;99.90
8593;DHT22;4334;49.982;8.398;2024-03-25T03:12:01;5.90;99.90
8593;DHT22;4334;49.982;8.398;2024-03-25T03:14:27;5.80;99.90
8593;DHT22;4334;49.982;8.398;2024-03-25T03:16:53;5.80;99.90
8593;DHT22;4334;49.982;8.398;2024-03-25T03:19:21;5.70;99.90
8593;DHT22;4334;49.982;8.398;2024-03-25T03:21:48;5.70;99.90
8593;DHT22;4334;49.982;8.398;2024-03-25T03:24:13;5.70;99.90
8593;DHT22;4334;49.982;8.398;2024-03-25T03:26:40;5.80;99.90
8593;DHT22;4334;49.982;8.398;2024-03-25T03:29:05;5.80;99.90
8593;DHT22;4334;49.982;8.398;2024-03-25T03:31:32;5.80;99.90
8593;DHT22;4334;49.982;8.398;2024-03-25T03:33:57;5.90;99.90
8593;DHT22;4334;49.982;8.398;2024-03-25T03:36:24;5.90;99.90
8593;DHT22;4334;49.982;8.398;2024-03-25T03:38:52;5.80;99.90
8593;DHT22;4334;49.982;8.398;2024-03-25T03:41:19;5.90;99.90
8593;DHT22;4334;49.982;8.398;2024-03-25T03:43:45;5.90;99.90
8593;DHT22;4334;49.982;8.398;2024-03-25T03:46:11;5.90;99.90
8593;DHT22;4334;49.982;8.398;2024-03-25T03:48:37;5.90;99.90
8593;DHT22;4334;49.982;8.398;2024-03-25T03:51:05;5.80;99.90
8593;DHT22;4334;49.982;8.398;2024-03-25T03:53:31;5.80;99.90
8593;DHT22;4334;49.982;8.398;2024-03-25T03:55:59;5.70;99.90
8593;DHT22;4334;49.982;8.398;2024-03-25T03:58:25;5.70;99.90
8593;DHT22;4334;49.982;8.398;2024-03-25T04:00:52;5.50;99.90
8593;DHT22;4334;49.982;8.398;2024-03-25T04:03:18;5.40;99.90
8593;DHT22;4334;49.982;8.398;2024-03-25T04:05:44;5.20;99.90
8593;DHT22;4334;49.982;8.398;2024-03-25T04:08:10;5.10;99.90
8593;DHT22;4334;49.982;8.398;2024-03-25T04:10:37;2.40;99.90
8593;DHT22;4334;49.982;8.398;2024-03-25T04:13:04;5.00;99.90
8593;DHT22;4334;49.982;8.398;2024-03-25T04:15:37;4.90;99.90
8593;DHT22;4334;49.982;8.398;2024-03-25T04:18:04;4.90;99.90
8593;DHT22;4334;49.982;8.398;2024-03-25T04:20:38;4.90;99.90
8593;DHT22;4334;49.982;8.398;2024-03-25T04:23:04;4.90;99.90
8593;DHT22;4334;49.982;8.398;2024-03-25T04:25:33;4.80;99.90
8593;DHT22;4334;49.982;8.398;2024-03-25T04:27:58;4.80;99.90
8593;DHT22;4334;49.982;8.398;2024-03-25T04:30:25;4.80;99.90
8593;DHT22;4334;49.982;8.398;2024-03-25T04:32:51;4.70;99.90
8593;DHT22;4334;49.982;8.398;2024-03-25T04:35:18;4.70;99.90
8593;DHT22;4334;49.982;8.398;2024-03-25T04:37:43;4.60;99.90
8593;DHT22;4334;49.982;8.398;2024-03-25T04:40:10;4.60;99.90
8593;DHT22;4334;49.982;8.398;2024-03-25T04:42:35;4.60;99.90
8593;DHT22;4334;49.982;8.398;2024-03-25T04:45:01;4.60;99.90
8593;DHT22;4334;49.982;8.398;2024-03-25T04:47:27;6.30;99.90
8593;DHT22;4334;49.982;8.398;2024-03-25T04:49:53;4.50;99.90
8593;DHT22;4334;49.982;8.398;2024-03-25T04:52:18;4.40;99.90
8593;DHT22;4334;49.982;8.398;2024-03-25T04:54:44;4.40;99.90
8593;DHT22;4334;49.982;8.398;2024-03-25T04:57:10;4.20;99.90
8593;DHT22;4334;49.982;8.398;2024-03-25T04:59:36;5.50;99.90
8593;DHT22;4334;49.982;8.398;2024-03-25T05:02:02;4.30;99.90
8593;DHT22;4334;49.982;8.398;2024-03-25T05:04:27;4.10;99.90
8593;DHT22;4334;49.982;8.398;2024-03-25T05:06:53;4.00;99.90
8593;DHT22;4334;49.982;8.398;2024-03-25T05:09:19;4.00;99.90
8593;DHT22;4334;49.982;8.398;2024-03-25T05:11:45;3.80;99.90
8593;DHT22;4334;49.982;8.398;2024-03-25T05:14:10;3.70;99.90
8593;DHT22;4334;49.982;8.398;2024-03-25T05:16:36;3.60;99.90
8593;DHT22;4334;49.982;8.398;2024-03-25T05:19:02;3.70;99.90
8593;DHT22;4334;49.982;8.398;2024-03-25T05:21:28;3.70;99.90
8593;DHT22;4334;49.982;8.398;2024-03-25T05:23:53;3.70;99.90
8593;DHT22;4334;49.982;8.398;2024-03-25T05:26:19;3.80;99.90
8593;DHT22;4334;49.982;8.398;2024-03-25T05:28:45;4.00;99.90
8593;DHT22;4334;49.982;8.398;2024-03-25T05:31:10;3.70;99.90
8593;DHT22;4334;49.982;8.398;2024-03-25T05:33:36;3.70;99.90
8593;DHT22;4334;49.982;8.398;2024-03-25T05:36:02;3.80;99.90
8593;DHT22;4334;49.982;8.398;2024-03-25T05:38:28;3.90;99.90
8593;DHT22;4334;49.982;8.398;2024-03-25T05:40:54;3.90;99.90
8593;DHT22;4334;49.982;8.398;2024-03-25T05:43:20;4.40;99.90
8593;DHT22;4334;49.982;8.398;2024-03-25T05:45:56;3.80;99.90
8593;DHT22;4334;49.982;8.398;2024-03-25T05:48:24;3.80;99.90
8593;DHT22;4334;49.982;8.398;2024-03-25T05:51:06;3.80;99.90
8593;DHT22;4334;49.982;8.398;2024-03-25T05:53:32;5.50;99.90
8593;DHT22;4334;49.982;8.398;2024-03-25T05:55:57;3.90;99.90
8593;DHT22;4334;49.982;8.398;2024-03-25T05:58:23;4.30;99.90
8593;DHT22;4334;49.982;8.398;2024-03-25T06:00:49;4.80;99.90
8593;DHT22;4334;49.982;8.398;2024-03-25T06:03:16;5.20;99.90
8593;DHT22;4334;49.982;8.398;2024-03-25T06:05:42;5.80;99.90
8593;DHT22;4334;49.982;8.398;2024-03-25T06:08:08;6.30;99.90
8593;DHT22;4334;49.982;8.398;2024-03-25T06:10:37;6.70;99.90
8593;DHT22;4334;49.982;8.398;2024-03-25T06:13:03;7.10;99.90
8593;DHT22;4334;49.982;8.398;2024-03-25T06:15:29;7.40;99.90
8593;DHT22;4334;49.982;8.398;2024-03-25T06:17:54;7.80;99.90
8593;DHT22;4334;49.982;8.398;2024-03-25T06:20:20;8.00;99.90
8593;DHT22;4334;49.982;8.398;2024-03-25T06:22:46;8.00;99.90
8593;DHT22;4334;49.982;8.398;2024-03-25T06:25:11;8.20;99.90
8593;DHT22;4334;49.982;8.398;2024-03-25T06:27:37;8.40;99.90
8593;DHT22;4334;49.982;8.398;2024-03-25T06:30:03;8.50;99.90
8593;DHT22;4334;49.982;8.398;2024-03-25T06:32:44;8.50;99.90
8593;DHT22;4334;49.982;8.398;2024-03-25T06:35:27;8.60;99.90
8593;DHT22;4334;49.982;8.398;2024-03-25T06:37:53;9.10;99.90
8593;DHT22;4334;49.982;8.398;2024-03-25T06:40:19;9.40;99.90
8593;DHT22;4334;49.982;8.398;2024-03-25T06:42:45;9.70;99.90
8593;DHT22;4334;49.982;8.398;2024-03-25T06:45:10;9.90;99.90
8593;DHT22;4334;49.982;8.398;2024-03-25T06:47:36;10.10;99.90
8593;DHT22;4334;49.982;8.398;2024-03-25T06:50:01;10.20;99.90
8593;DHT22;4334;49.982;8.398;2024-03-25T06:52:28;10.60;99.90
8593;DHT22;4334;49.982;8.398;2024-03-25T06:54:54;10.40;99.90
8593;DHT22;4334;49.982;8.398;2024-03-25T06:57:19;10.00;99.90
8593;DHT22;4334;49.982;8.398;2024-03-25T06:59:45;9.80;99.90
8593;DHT22;4334;49.982;8.398;2024-03-25T07:02:11;9.70;99.90
8593;DHT22;4334;49.982;8.398;2024-03-25T07:04:36;9.80;99.90
8593;DHT22;4334;49.982;8.398;2024-03-25T07:07:02;10.20;99.90
8593;DHT22;4334;49.982;8.398;2024-03-25T07:09:28;10.60;99.90
8593;DHT22;4334;49.982;8.398;2024-03-25T07:11:53;10.90;99.90
8593;DHT22;4334;49.982;8.398;2024-03-25T07:14:19;10.60;99.90
8593;DHT22;4334;49.982;8.398;2024-03-25T07:16:44;10.30;99.90
8593;DHT22;4334;49.982;8.398;2024-03-25T07:19:10;10.30;99.90
8593;DHT22;4334;49.982;8.398;2024-03-25T07:21:36;10.40;99.90
8593;DHT22;4334;49.982;8.398;2024-03-25T07:24:01;10.20;99.90
8593;DHT22;4334;49.982;8.398;2024-03-25T07:26:27;10.20;99.90
8593;DHT22;4334;49.982;8.398;2024-03-25T07:28:53;14.10;99.90
8593;DHT22;4334;49.982;8.398;2024-03-25T07:31:18;10.30;99.90
8593;DHT22;4334;49.982;8.398;2024-03-25T07:33:44;10.50;99.90
8593;DHT22;4334;49.982;8.398;2024-03-25T07:36:10;10.30;99.90
8593;DHT22;4334;49.982;8.398;2024-03-25T07:38:36;10.70;99.90
8593;DHT22;4334;49.982;8.398;2024-03-25T07:41:04;10.70;99.90
8593;DHT22;4334;49.982;8.398;2024-03-25T07:43:30;10.70;99.90
8593;DHT22;4334;49.982;8.398;2024-03-25T07:45:56;10.60;99.90
8593;DHT22;4334;49.982;8.398;2024-03-25T07:48:21;10.80;99.90
8593;DHT22;4334;49.982;8.398;2024-03-25T07:50:47;11.30;99.90
8593;DHT22;4334;49.982;8.398;2024-03-25T07:53:13;11.00;99.90
8593;DHT22;4334;49.982;8.398;2024-03-25T07:55:39;11.20;99.90
8593;DHT22;4334;49.982;8.398;2024-03-25T07:58:07;11.40;99.90
8593;DHT22;4334;49.982;8.398;2024-03-25T08:00:33;11.40;99.90
8593;DHT22;4334;49.982;8.398;2024-03-25T08:02:59;13.10;99.90
8593;DHT22;4334;49.982;8.398;2024-03-25T08:05:24;11.10;99.90
8593;DHT22;4334;49.982;8.398;2024-03-25T08:07:50;11.30;99.90
8593;DHT22;4334;49.982;8.398;2024-03-25T08:10:16;11.80;99.90
8593;DHT22;4334;49.982;8.398;2024-03-25T08:12:41;12.30;99.90
8593;DHT22;4334;49.982;8.398;2024-03-25T08:15:07;12.40;99.90
8593;DHT22;4334;49.982;8.398;2024-03-25T08:17:33;12.40;99.90
8593;DHT22;4334;49.982;8.398;2024-03-25T08:19:59;12.30;99.90
8593;DHT22;4334;49.982;8.398;2024-03-25T08:22:24;12.40;99.90
8593;DHT22;4334;49.982;8.398;2024-03-25T08:24:50;12.40;99.90
8593;DHT22;4334;49.982;8.398;2024-03-25T08:27:16;12.60;99.90
8593;DHT22;4334;49.982;8.398;2024-03-25T08:29:41;12.50;99.90
8593;DHT22;4334;49.982;8.398;2024-03-25T08:32:07;12.40;99.90
8593;DHT22;4334;49.982;8.398;2024-03-25T08:34:33;12.30;99.90
8593;DHT22;4334;49.982;8.398;2024-03-25T08:36:58;12.20;99.90
8593;DHT22;4334;49.982;8.398;2024-03-25T08:39:24;12.80;99.90
8593;DHT22;4334;49.982;8.398;2024-03-25T08:41:50;12.60;99.90
8593;DHT22;4334;49.982;8.398;2024-03-25T08:44:15;11.80;99.90
8593;DHT22;4334;49.982;8.398;2024-03-25T08:46:41;11.70;99.90
8593;DHT22;4334;49.982;8.398;2024-03-25T08:49:07;12.50;99.90
8593;DHT22;4334;49.982;8.398;2024-03-25T08:51:32;13.00;99.90
8593;DHT22;4334;49.982;8.398;2024-03-25T08:53:59;13.40;99.90
8593;DHT22;4334;49.982;8.398;2024-03-25T08:56:25;13.60;99.90
8593;DHT22;4334;49.982;8.398;2024-03-25T08:58:50;12.60;99.90
8593;DHT22;4334;49.982;8.398;2024-03-25T09:01:16;12.50;99.90
8593;DHT22;4334;49.982;8.398;2024-03-25T09:03:42;12.70;99.90
8593;DHT22;4334;49.982;8.398;2024-03-25T09:06:07;13.00;99.90
8593;DHT22;4334;49.982;8.398;2024-03-25T09:08:33;13.60;99.90
8593;DHT22;4334;49.982;8.398;2024-03-25T09:10:59;13.70;99.90
8593;DHT22;4334;49.982;8.398;2024-03-25T09:13:29;14.10;99.90
8593;DHT22;4334;49.982;8.398;2024-03-25T09:15:54;14.40;99.90
8593;DHT22;4334;49.982;8.398;2024-03-25T09:18:21;14.20;99.90
8593;DHT22;4334;49.982;8.398;2024-03-25T09:20:46;14.20;99.90
8593;DHT22;4334;49.982;8.398;2024-03-25T09:23:12;14.20;99.90
8593;DHT22;4334;49.982;8.398;2024-03-25T09:25:38;13.90;99.90
8593;DHT22;4334;49.982;8.398;2024-03-25T09:28:03;14.10;99.90
8593;DHT22;4334;49.982;8.398;2024-03-25T09:30:29;15.00;98.60
8593;DHT22;4334;49.982;8.398;2024-03-25T09:32:55;14.70;99.30
8593;DHT22;4334;49.982;8.398;2024-03-25T09:35:20;15.00;98.20
8593;DHT22;4334;49.982;8.398;2024-03-25T09:37:46;14.70;98.20
8593;DHT22;4334;49.982;8.398;2024-03-25T09:40:12;15.30;97.90
8593;DHT22;4334;49.982;8.398;2024-03-25T09:42:48;15.50;97.10
8593;DHT22;4334;49.982;8.398;2024-03-25T09:45:16;15.50;97.00
8593;DHT22;4334;49.982;8.398;2024-03-25T09:47:46;14.40;98.00
8593;DHT22;4334;49.982;8.398;2024-03-25T09:50:15;17.40;99.80
8593;DHT22;4334;49.982;8.398;2024-03-25T09:52:41;14.30;97.70
8593;DHT22;4334;49.982;8.398;2024-03-25T09:55:07;14.70;96.90
8593;DHT22;4334;49.982;8.398;2024-03-25T09:57:34;15.00;95.70
8593;DHT22;4334;49.982;8.398;2024-03-25T10:00:00;18.90;97.20
8593;DHT22;4334;49.982;8.398;2024-03-25T10:02:28;14.20;95.90
8593;DHT22;4334;49.982;8.398;2024-03-25T10:04:54;13.30;97.10
8593;DHT22;4334;49.982;8.398;2024-03-25T10:07:24;15.10;97.80
8593;DHT22;4334;49.982;8.398;2024-03-25T10:09:51;14.10;96.50
8593;DHT22;4334;49.982;8.398;2024-03-25T10:12:17;14.00;96.20
8593;DHT22;4334;49.982;8.398;2024-03-25T10:14:43;14.00;96.30
8593;DHT22;4334;49.982;8.398;2024-03-25T10:17:09;14.50;96.60
8593;DHT22;4334;49.982;8.398;2024-03-25T10:19:35;13.90;94.90
8593;DHT22;4334;49.982;8.398;2024-03-25T10:22:03;13.20;95.90
8593;DHT22;4334;49.982;8.398;2024-03-25T10:24:40;12.70;95.90
8593;DHT22;4334;49.982;8.398;2024-03-25T10:27:10;11.90;96.00
8593;DHT22;4334;49.982;8.398;2024-03-25T10:29:36;11.90;97.80
8593;DHT22;4334;49.982;8.398;2024-03-25T10:32:02;13.10;95.30
8593;DHT22;4334;49.982;8.398;2024-03-25T10:34:27;13.70;95.60
8593;DHT22;4334;49.982;8.398;2024-03-25T10:36:57;14.10;94.90
8593;DHT22;4334;49.982;8.398;2024-03-25T10:39:26;14.30;93.90
8593;DHT22;4334;49.982;8.398;2024-03-25T10:41:58;14.50;94.40
8593;DHT22;4334;49.982;8.398;2024-03-25T10:44:26;14.90;93.90
8593;DHT22;4334;49.982;8.398;2024-03-25T10:46:57;15.30;92.40
8593;DHT22;4334;49.982;8.398;2024-03-25T10:52:11;14.90;93.90
8593;DHT22;4334;49.982;8.398;2024-03-25T10:54:39;14.80;92.80
8593;DHT22;4334;49.982;8.398;2024-03-25T10:57:06;14.80;92.10
8593;DHT22;4334;49.982;8.398;2024-03-25T10:59:33;14.90;93.10
8593;DHT22;4334;49.982;8.398;2024-03-25T11:01:59;14.50;92.90
8593;DHT22;4334;49.982;8.398;2024-03-25T11:04:24;15.20;92.30
8593;DHT22;4334;49.982;8.398;2024-03-25T11:06:50;15.20;91.80
8593;DHT22;4334;49.982;8.398;2024-03-25T11:09:25;15.00;92.00
8593;DHT22;4334;49.982;8.398;2024-03-25T11:11:52;15.50;92.40
8593;DHT22;4334;49.982;8.398;2024-03-25T11:14:18;15.30;91.60
8593;DHT22;4334;49.982;8.398;2024-03-25T11:16:53;15.00;90.90
8593;DHT22;4334;49.982;8.398;2024-03-25T11:19:20;14.90;92.40
8593;DHT22;4334;49.982;8.398;2024-03-25T11:21:46;15.50;91.40
8593;DHT22;4334;49.982;8.398;2024-03-25T11:24:12;16.00;90.20
8593;DHT22;4334;49.982;8.398;2024-03-25T11:26:42;16.90;90.20
8593;DHT22;4334;49.982;8.398;2024-03-25T11:29:08;15.80;89.40
8593;DHT22;4334;49.982;8.398;2024-03-25T11:31:34;15.40;90.80
8593;DHT22;4334;49.982;8.398;2024-03-25T11:34:06;15.70;90.00
8593;DHT22;4334;49.982;8.398;2024-03-25T11:36:32;15.70;89.90
8593;DHT22;4334;49.982;8.398;2024-03-25T11:38:59;16.00;88.90
8593;DHT22;4334;49.982;8.398;2024-03-25T11:41:25;16.30;87.10
8593;DHT22;4334;49.982;8.398;2024-03-25T11:43:50;16.80;86.40
8593;DHT22;4334;49.982;8.398;2024-03-25T11:46:19;16.70;84.40
8593;DHT22;4334;49.982;8.398;2024-03-25T11:48:45;15.40;84.20
8593;DHT22;4334;49.982;8.398;2024-03-25T11:51:17;14.90;86.50
8593;DHT22;4334;49.982;8.398;2024-03-25T11:53:43;14.90;88.70
8593;DHT22;4334;49.982;8.398;2024-03-25T11:56:09;15.60;88.30
8593;DHT22;4334;49.982;8.398;2024-03-25T11:58:35;15.90;83.40
8593;DHT22;4334;49.982;8.398;2024-03-25T12:01:00;16.10;86.60
8593;DHT22;4334;49.982;8.398;2024-03-25T12:03:26;17.40;83.60
8593;DHT22;4334;49.982;8.398;2024-03-25T12:05:52;18.60;79.60
8593;DHT22;4334;49.982;8.398;2024-03-25T12:08:18;18.20;77.30
8593;DHT22;4334;49.982;8.398;2024-03-25T12:10:43;18.00;75.50
8593;DHT22;4334;49.982;8.398;2024-03-25T12:13:27;17.00;76.50
8593;DHT22;4334;49.982;8.398;2024-03-25T12:15:53;16.70;77.90
8593;DHT22;4334;49.982;8.398;2024-03-25T12:18:21;16.40;77.30
8593;DHT22;4334;49.982;8.398;2024-03-25T12:20:47;16.50;76.80
8593;DHT22;4334;49.982;8.398;2024-03-25T12:23:13;20.00;78.90
8593;DHT22;4334;49.982;8.398;2024-03-25T12:25:38;19.00;74.00
8593;DHT22;4334;49.982;8.398;2024-03-25T12:28:11;23.30;75.10
8593;DHT22;4334;49.982;8.398;2024-03-25T12:30:50;18.80;71.20
8593;DHT22;4334;49.982;8.398;2024-03-25T12:33:16;17.80;68.90
8593;DHT22;4334;49.982;8.398;2024-03-25T12:35:44;17.40;72.50
8593;DHT22;4334;49.982;8.398;2024-03-25T12:38:10;18.20;72.50
8593;DHT22;4334;49.982;8.398;2024-03-25T12:40:36;18.60;69.90
8593;DHT22;4334;49.982;8.398;2024-03-25T12:43:01;18.70;68.50
8593;DHT22;4334;49.982;8.398;2024-03-25T12:45:27;18.90;68.70
8593;DHT22;4334;49.982;8.398;2024-03-25T12:47:53;18.60;68.60
8593;DHT22;4334;49.982;8.398;2024-03-25T12:50:18;19.20;66.80
8593;DHT22;4334;49.982;8.398;2024-03-25T12:52:44;19.00;63.50
8593;DHT22;4334;49.982;8.398;2024-03-25T12:55:10;19.20;62.90
8593;DHT22;4334;49.982;8.398;2024-03-25T12:57:36;19.60;64.70
8593;DHT22;4334;49.982;8.398;2024-03-25T13:00:02;19.30;64.90
8593;DHT22;4334;49.982;8.398;2024-03-25T13:02:28;19.00;62.50
8593;DHT22;4334;49.982;8.398;2024-03-25T13:04:54;20.60;63.50
8593;DHT22;4334;49.982;8.398;2024-03-25T13:07:19;18.40;63.50
8593;DHT22;4334;49.982;8.398;2024-03-25T13:09:45;18.00;63.40
8593;DHT22;4334;49.982;8.398;2024-03-25T13:12:11;18.50;65.40
8593;DHT22;4334;49.982;8.398;2024-03-25T13:14:36;18.60;64.80
8593;DHT22;4334;49.982;8.398;2024-03-25T13:17:02;18.50;65.00
8593;DHT22;4334;49.982;8.398;2024-03-25T13:19:28;16.20;69.20
8593;DHT22;4334;49.982;8.398;2024-03-25T13:21:55;16.40;71.20
8593;DHT22;4334;49.982;8.398;2024-03-25T13:24:21;18.10;68.10
8593;DHT22;4334;49.982;8.398;2024-03-25T13:26:46;17.10;67.90
8593;DHT22;4334;49.982;8.398;2024-03-25T13:29:12;18.20;70.70
8593;DHT22;4334;49.982;8.398;2024-03-25T13:31:38;17.70;69.50
8593;DHT22;4334;49.982;8.398;2024-03-25T13:34:03;18.60;67.80
8593;DHT22;4334;49.982;8.398;2024-03-25T13:36:29;18.10;67.50
8593;DHT22;4334;49.982;8.398;2024-03-25T13:38:55;16.90;69.70
8593;DHT22;4334;49.982;8.398;2024-03-25T13:41:20;17.00;68.60
8593;DHT22;4334;49.982;8.398;2024-03-25T13:43:47;16.90;70.20
8593;DHT22;4334;49.982;8.398;2024-03-25T13:46:13;17.00;70.90
8593;DHT22;4334;49.982;8.398;2024-03-25T13:48:39;17.70;69.00
8593;DHT22;4334;49.982;8.398;2024-03-25T13:51:05;17.60;70.30
8593;DHT22;4334;49.982;8.398;2024-03-25T13:53:30;17.40;68.10
8593;DHT22;4334;49.982;8.398;2024-03-25T13:55:56;16.60;67.50
8593;DHT22;4334;49.982;8.398;2024-03-25T13:58:22;16.50;68.10
8593;DHT22;4334;49.982;8.398;2024-03-25T14:00:48;16.10;68.90
8593;DHT22;4334;49.982;8.398;2024-03-25T14:03:13;16.00;69.50
8593;DHT22;4334;49.982;8.398;2024-03-25T14:05:39;16.30;69.30
8593;DHT22;4334;49.982;8.398;2024-03-25T14:08:05;16.60;67.80
8593;DHT22;4334;49.982;8.398;2024-03-25T14:10:30;16.10;68.40
8593;DHT22;4334;49.982;8.398;2024-03-25T14:12:56;16.20;69.70
8593;DHT22;4334;49.982;8.398;2024-03-25T14:15:22;16.30;70.50
8593;DHT22;4334;49.982;8.398;2024-03-25T14:17:47;17.10;69.70
8593;DHT22;4334;49.982;8.398;2024-03-25T14:20:13;17.40;67.30
8593;DHT22;4334;49.982;8.398;2024-03-25T14:22:39;17.30;65.30
8593;DHT22;4334;49.982;8.398;2024-03-25T14:25:05;17.30;66.50
8593;DHT22;4334;49.982;8.398;2024-03-25T14:27:30;17.70;65.90
8593;DHT22;4334;49.982;8.398;2024-03-25T14:29:56;18.00;64.80
8593;DHT22;4334;49.982;8.398;2024-03-25T14:32:23;17.10;64.80
8593;DHT22;4334;49.982;8.398;2024-03-25T14:34:49;16.40;65.00
8593;DHT22;4334;49.982;8.398;2024-03-25T14:37:15;20.90;71.00
8593;DHT22;4334;49.982;8.398;2024-03-25T14:39:41;17.40;66.00
8593;DHT22;4334;49.982;8.398;2024-03-25T14:42:10;16.70;64.00
8593;DHT22;4334;49.982;8.398;2024-03-25T14:44:37;17.00;63.60
8593;DHT22;4334;49.982;8.398;2024-03-25T14:47:03;17.40;59.90
8593;DHT22;4334;49.982;8.398;2024-03-25T14:49:29;16.90;62.60
8593;DHT22;4334;49.982;8.398;2024-03-25T14:51:55;17.30;61.40
8593;DHT22;4334;49.982;8.398;2024-03-25T14:54:21;16.70;60.60
8593;DHT22;4334;49.982;8.398;2024-03-25T14:56:47;16.90;59.40
8593;DHT22;4334;49.982;8.398;2024-03-25T14:59:13;17.10;61.40
8593;DHT22;4334;49.982;8.398;2024-03-25T15:01:39;17.50;59.50
8593;DHT22;4334;49.982;8.398;2024-03-25T15:04:05;17.30;62.00
8593;DHT22;4334;49.982;8.398;2024-03-25T15:06:31;15.50;61.00
8593;DHT22;4334;49.982;8.398;2024-03-25T15:08:57;18.20;63.60
8593;DHT22;4334;49.982;8.398;2024-03-25T15:11:23;17.00;60.40
8593;DHT22;4334;49.982;8.398;2024-03-25T15:13:50;17.20;59.50
8593;DHT22;4334;49.982;8.398;2024-03-25T15:16:16;17.20;59.00
8593;DHT22;4334;49.982;8.398;2024-03-25T15:18:41;17.20;58.60
8593;DHT22;4334;49.982;8.398;2024-03-25T15:21:07;16.70;60.90
8593;DHT22;4334;49.982;8.398;2024-03-25T15:23:33;16.30;62.00
8593;DHT22;4334;49.982;8.398;2024-03-25T15:25:59;16.30;62.60
8593;DHT22;4334;49.982;8.398;2024-03-25T15:28:24;15.60;61.80
8593;DHT22;4334;49.982;8.398;2024-03-25T15:30:51;15.80;63.30
8593;DHT22;4334;49.982;8.398;2024-03-25T15:33:17;16.20;62.50
8593;DHT22;4334;49.982;8.398;2024-03-25T15:35:43;16.00;64.10
8593;DHT22;4334;49.982;8.398;2024-03-25T15:38:08;16.70;62.90
8593;DHT22;4334;49.982;8.398;2024-03-25T15:40:35;16.90;61.00
8593;DHT22;4334;49.982;8.398;2024-03-25T15:43:01;17.30;60.70
8593;DHT22;4334;49.982;8.398;2024-03-25T15:45:27;17.10;61.70
8593;DHT22;4334;49.982;8.398;2024-03-25T15:47:54;16.80;60.60
8593;DHT22;4334;49.982;8.398;2024-03-25T15:50:19;20.50;65.60
8593;DHT22;4334;49.982;8.398;2024-03-25T15:52:45;17.90;61.10
8593;DHT22;4334;49.982;8.398;2024-03-25T15:55:11;17.90;60.90
8593;DHT22;4334;49.982;8.398;2024-03-25T15:57:37;17.00;61.90
8593;DHT22;4334;49.982;8.398;2024-03-25T16:00:03;17.60;61.70
8593;DHT22;4334;49.982;8.398;2024-03-25T16:02:29;17.70;61.50
8593;DHT22;4334;49.982;8.398;2024-03-25T16:04:55;16.90;58.90
8593;DHT22;4334;49.982;8.398;2024-03-25T16:07:21;16.90;59.50